createdAt,value
2019-02-16T00:00:57.507Z,124.65
2019-02-16T00:02:01.543Z,128.93
2019-02-16T00:03:06.265Z,129.95
2019-02-16T00:04:10.183Z,125.47
2019-02-16T00:05:14.102Z,136.77
2019-02-16T00:06:18.093Z,137.00
2019-02-16T00:07:23.513Z,125.80
2019-02-16T00:08:29.081Z,142.55
2019-02-16T00:09:33.301Z,137.40
2019-02-16T00:10:37.875Z,149.30
2019-02-16T00:11:42.046Z,131.25
2019-02-16T00:12:46.123Z,129.18
2019-02-16T00:13:50.077Z,134.05
2019-02-16T00:14:54.105Z,136.70
2019-02-16T00:15:58.109Z,131.55
2019-02-16T00:17:02.141Z,136.47
2019-02-16T00:18:06.255Z,131.70
2019-02-16T00:19:13.368Z,142.40
2019-02-16T00:20:17.267Z,135.95
2019-02-16T00:21:21.213Z,117.08
2019-02-16T00:22:25.091Z,131.20
2019-02-16T00:23:29.045Z,132.37
2019-02-16T00:24:32.959Z,133.93
2019-02-16T00:25:37.207Z,137.43
2019-02-16T00:26:41.072Z,130.15
2019-02-16T00:27:45.103Z,131.15
2019-02-16T00:28:49.015Z,148.20
2019-02-16T00:29:52.981Z,121.77
2019-02-16T00:30:56.879Z,133.50
2019-02-16T00:32:00.817Z,130.18
2019-02-16T00:33:04.722Z,125.30
2019-02-16T00:34:08.647Z,129.12
2019-02-16T00:35:12.561Z,118.25
2019-02-16T00:36:17.356Z,127.90
2019-02-16T00:37:21.261Z,130.37
2019-02-16T00:38:25.149Z,133.10
2019-02-16T00:39:29.159Z,136.57
2019-02-16T00:40:33.120Z,124.67
2019-02-16T00:41:38.570Z,127.58
2019-02-16T00:42:42.474Z,133.72
2019-02-16T00:43:46.474Z,130.12
2019-02-16T00:44:50.374Z,123.33
2019-02-16T00:45:54.312Z,129.95
2019-02-16T00:46:58.258Z,129.68
2019-02-16T00:48:02.175Z,120.30
2019-02-16T00:49:06.066Z,129.82
2019-02-16T00:50:09.964Z,127.97
2019-02-16T00:51:14.202Z,125.70
2019-02-16T00:52:18.200Z,139.65
2019-02-16T00:53:22.121Z,108.60
2019-02-16T00:54:26.046Z,125.97
2019-02-16T00:55:29.921Z,118.62
2019-02-16T00:56:33.818Z,119.33
2019-02-16T00:57:37.770Z,124.00
2019-02-16T00:58:41.663Z,114.75
2019-02-16T00:59:45.718Z,118.97
2019-02-16T01:00:49.669Z,128.65
2019-02-16T01:01:53.618Z,96.67
2019-02-16T01:02:57.535Z,112.77
2019-02-16T01:04:01.431Z,101.62
2019-02-16T01:05:06.657Z,118.28
2019-02-16T01:06:10.611Z,120.25
2019-02-16T01:07:14.523Z,117.70
2019-02-16T01:08:18.457Z,130.12
2019-02-16T01:09:22.543Z,112.37
2019-02-16T01:10:26.438Z,117.67
2019-02-16T01:11:30.410Z,104.23
2019-02-16T01:12:34.315Z,113.00
2019-02-16T01:13:38.300Z,113.30
2019-02-16T01:14:42.211Z,118.30
2019-02-16T01:15:46.095Z,125.05
2019-02-16T01:16:50.004Z,104.55
2019-02-16T01:17:53.937Z,118.85
2019-02-16T01:18:58.129Z,115.22
2019-02-16T01:20:02.007Z,108.30
2019-02-16T01:21:05.969Z,117.77
2019-02-16T01:22:09.961Z,113.15
2019-02-16T01:23:13.866Z,119.00
2019-02-16T01:24:17.946Z,113.28
2019-02-16T01:25:21.909Z,121.75
2019-02-16T01:26:25.801Z,112.37
2019-02-16T01:27:29.729Z,123.38
2019-02-16T01:28:33.626Z,108.52
2019-02-16T01:29:37.844Z,113.60
2019-02-16T01:30:41.953Z,113.57
2019-02-16T01:31:45.930Z,118.87
2019-02-16T01:32:49.942Z,119.65
2019-02-16T01:33:53.844Z,114.22
2019-02-16T01:34:57.801Z,94.80
2019-02-16T01:36:01.830Z,87.33
2019-02-16T01:37:05.998Z,100.67
2019-02-16T01:38:09.868Z,93.67
2019-02-16T01:39:13.839Z,82.45
2019-02-16T01:40:17.923Z,90.32
2019-02-16T01:41:21.943Z,93.65
2019-02-16T01:42:25.881Z,100.72
2019-02-16T01:43:29.857Z,90.57
2019-02-16T01:44:33.818Z,86.53
2019-02-16T01:45:37.749Z,94.45
2019-02-16T01:46:41.713Z,90.12
2019-02-16T01:47:51.362Z,102.38
2019-02-16T01:48:55.467Z,99.20
2019-02-16T01:49:59.375Z,95.77
2019-02-16T01:51:03.324Z,100.12
2019-02-16T01:52:07.333Z,86.28
2019-02-16T01:53:11.242Z,98.45
2019-02-16T01:54:15.280Z,91.97
2019-02-16T01:55:19.248Z,98.30
2019-02-16T01:56:23.306Z,101.05
2019-02-16T01:57:28.440Z,96.45
2019-02-16T01:58:32.359Z,102.10
2019-02-16T01:59:36.374Z,95.65
2019-02-16T02:00:40.460Z,98.58
2019-02-16T02:01:44.520Z,87.15
2019-02-16T02:02:48.392Z,107.07
2019-02-16T02:03:52.312Z,91.25
2019-02-16T02:04:56.298Z,79.58
2019-02-16T02:06:00.228Z,83.78
2019-02-16T02:07:04.226Z,86.85
2019-02-16T02:08:08.127Z,83.30
2019-02-16T02:09:12.390Z,86.42
2019-02-16T02:10:16.608Z,89.60
2019-02-16T02:11:20.535Z,92.53
2019-02-16T02:12:24.619Z,85.38
2019-02-16T02:13:28.537Z,83.20
2019-02-16T02:14:32.503Z,87.17
2019-02-16T02:15:36.477Z,88.40
2019-02-16T02:16:40.496Z,83.95
2019-02-16T02:17:44.668Z,84.65
2019-02-16T02:18:49.974Z,75.55
2019-02-16T02:19:53.894Z,78.75
2019-02-16T02:20:57.822Z,78.10
2019-02-16T02:22:01.794Z,71.75
2019-02-16T02:23:05.754Z,77.90
2019-02-16T02:24:09.671Z,69.22
2019-02-16T02:25:13.617Z,74.92
2019-02-16T02:26:17.492Z,82.08
2019-02-16T02:27:21.560Z,73.85
2019-02-16T02:28:25.469Z,86.05
2019-02-16T02:29:29.388Z,89.13
2019-02-16T02:30:36.038Z,68.40
2019-02-16T02:31:40.131Z,75.70
2019-02-16T02:32:44.166Z,73.33
2019-02-16T02:33:48.206Z,78.17
2019-02-16T02:34:52.330Z,79.17
2019-02-16T02:35:56.215Z,80.60
2019-02-16T02:37:00.215Z,66.70
2019-02-16T02:38:04.395Z,63.10
2019-02-16T02:39:08.346Z,68.20
2019-02-16T02:40:12.507Z,67.87
2019-02-16T02:41:16.416Z,69.10
2019-02-16T02:42:20.474Z,67.95
2019-02-16T02:43:24.369Z,71.17
2019-02-16T02:44:28.305Z,75.60
2019-02-16T02:45:32.299Z,64.87
2019-02-16T02:50:30.396Z,59.05
2019-02-16T02:51:34.314Z,62.75
2019-02-16T02:52:38.236Z,69.95
2019-02-16T02:53:42.308Z,67.42
2019-02-16T02:54:46.188Z,66.67
2019-02-16T02:55:50.158Z,70.72
2019-02-16T02:56:54.196Z,61.18
2019-02-16T02:57:58.198Z,66.77
2019-02-16T02:59:02.276Z,62.70
2019-02-16T03:00:08.905Z,61.88
2019-02-16T03:01:12.923Z,59.93
2019-02-16T03:02:16.956Z,59.13
2019-02-16T03:03:20.826Z,64.85
2019-02-16T03:04:24.798Z,65.57
2019-02-16T03:05:28.681Z,68.30
2019-02-16T03:06:32.576Z,63.58
2019-02-16T03:07:36.492Z,54.15
2019-02-16T03:08:40.366Z,69.92
2019-02-16T03:09:44.378Z,59.27
2019-02-16T03:10:48.317Z,59.93
2019-02-16T03:11:52.204Z,59.03
2019-02-16T03:12:56.105Z,66.62
2019-02-16T03:14:00.016Z,68.50
2019-02-16T03:15:04.416Z,46.18
2019-02-16T03:16:12.690Z,50.50
2019-02-16T03:17:16.787Z,55.28
2019-02-16T03:18:20.826Z,71.20
2019-02-16T03:19:24.718Z,56.30
2019-02-16T03:20:28.613Z,56.28
2019-02-16T03:21:32.574Z,56.88
2019-02-16T03:23:08.495Z,59.20
2019-02-16T03:24:12.414Z,68.52
2019-02-16T03:25:16.360Z,50.83
2019-02-16T03:26:38.805Z,57.15
2019-02-16T03:27:48.866Z,56.42
2019-02-16T03:28:56.347Z,54.85
2019-02-16T03:30:24.572Z,53.23
2019-02-16T03:31:51.177Z,54.15
2019-02-16T03:33:10.205Z,53.33
2019-02-16T03:34:28.934Z,45.43
2019-02-16T03:35:36.126Z,57.25
2019-02-16T03:37:04.813Z,63.30
2019-02-16T03:38:14.885Z,48.30
2019-02-16T03:39:18.857Z,49.18
2019-02-16T03:40:22.920Z,51.83
2019-02-16T03:41:26.776Z,62.05
2019-02-16T03:42:30.758Z,49.60
2019-02-16T03:43:34.688Z,46.83
2019-02-16T03:44:38.632Z,48.50
2019-02-16T03:45:42.556Z,52.43
2019-02-16T03:46:46.526Z,48.65
2019-02-16T03:47:50.428Z,53.08
2019-02-16T03:48:54.345Z,47.67
2019-02-16T03:49:58.314Z,52.15
2019-02-16T03:51:02.228Z,59.03
2019-02-16T03:52:13.374Z,59.55
2019-02-16T03:53:11.712Z,61.25
2019-02-16T03:54:15.632Z,50.03
2019-02-16T03:55:19.523Z,49.53
2019-02-16T03:56:23.473Z,55.05
2019-02-16T03:57:27.371Z,53.08
2019-02-16T03:58:31.275Z,47.73
2019-02-16T03:59:35.176Z,48.38
2019-02-16T04:00:39.218Z,44.30
2019-02-16T04:01:43.178Z,48.02
2019-02-16T04:02:47.347Z,42.33
2019-02-16T04:03:51.282Z,42.73
2019-02-16T04:04:55.187Z,47.23
2019-02-16T04:05:59.157Z,48.65
2019-02-16T04:07:03.148Z,46.23
2019-02-16T04:08:07.054Z,40.75
2019-02-16T04:09:10.985Z,40.95
2019-02-16T04:10:14.932Z,42.17
2019-02-16T04:11:18.830Z,56.20
2019-02-16T04:12:22.944Z,52.55
2019-02-16T04:13:27.039Z,55.03
2019-02-16T04:14:31.011Z,49.18
2019-02-16T04:15:35.090Z,48.25
2019-02-16T04:16:39.005Z,44.23
2019-02-16T04:17:43.193Z,54.70
2019-02-16T04:18:47.115Z,50.55
2019-02-16T04:19:51.250Z,42.50
2019-02-16T04:20:55.192Z,47.85
2019-02-16T04:21:59.111Z,48.45
2019-02-16T04:23:03.086Z,45.50
2019-02-16T04:24:06.987Z,42.30
2019-02-16T04:25:11.024Z,49.25
2019-02-16T04:26:15.049Z,42.15
2019-02-16T04:27:18.944Z,40.78
2019-02-16T04:28:22.854Z,44.85
2019-02-16T04:29:26.784Z,47.53
2019-02-16T04:30:30.708Z,52.27
2019-02-16T04:31:34.641Z,43.10
2019-02-16T04:32:38.554Z,51.73
2019-02-16T04:33:42.475Z,50.10
2019-02-16T04:34:46.574Z,47.67
2019-02-16T04:35:50.532Z,48.73
2019-02-16T04:36:54.566Z,41.45
2019-02-16T04:37:58.455Z,47.98
2019-02-16T04:39:03.913Z,60.75
2019-02-16T04:40:09.643Z,43.48
2019-02-16T04:41:13.637Z,45.58
2019-02-16T04:42:17.608Z,55.55
2019-02-16T04:43:21.558Z,54.48
2019-02-16T04:44:25.457Z,47.40
2019-02-16T04:45:29.458Z,45.83
2019-02-16T04:46:33.432Z,47.80
2019-02-16T04:47:37.401Z,53.70
2019-02-16T04:48:41.399Z,55.65
2019-02-16T04:49:45.321Z,50.23
2019-02-16T04:50:49.326Z,47.27
2019-02-16T04:51:53.387Z,55.75
2019-02-16T04:52:57.312Z,50.92
2019-02-16T04:54:01.435Z,48.60
2019-02-16T04:55:07.176Z,49.50
2019-02-16T04:56:11.520Z,51.18
2019-02-16T04:57:15.505Z,46.88
2019-02-16T04:58:19.487Z,48.25
2019-02-16T04:59:23.526Z,51.92
2019-02-16T05:00:27.423Z,48.38
2019-02-16T05:01:31.431Z,50.92
2019-02-16T05:02:35.427Z,48.60
2019-02-16T05:03:39.336Z,45.83
2019-02-16T05:04:43.239Z,45.35
2019-02-16T05:05:47.159Z,50.60
2019-02-16T05:06:51.054Z,49.65
2019-02-16T05:07:55.013Z,49.85
2019-02-16T05:08:58.913Z,57.78
2019-02-16T05:10:03.217Z,45.83
2019-02-16T05:11:07.118Z,46.30
2019-02-16T05:12:11.090Z,47.43
2019-02-16T05:13:15.100Z,44.00
2019-02-16T05:14:19.081Z,64.62
2019-02-16T05:15:23.208Z,42.27
2019-02-16T05:16:27.192Z,44.53
2019-02-16T05:17:31.112Z,47.58
2019-02-16T05:18:35.044Z,40.80
2019-02-16T05:19:38.979Z,46.73
2019-02-16T05:20:42.983Z,53.13
2019-02-16T05:21:47.086Z,43.92
2019-02-16T05:22:51.058Z,44.88
2019-02-16T05:23:55.070Z,44.93
2019-02-16T05:24:59.095Z,46.75
2019-02-16T05:26:03.022Z,47.98
2019-02-16T05:27:06.937Z,47.33
2019-02-16T05:28:10.976Z,50.35
2019-02-16T05:29:15.081Z,46.13
2019-02-16T05:30:19.008Z,43.55
2019-02-16T05:31:22.895Z,50.45
2019-02-16T05:32:26.857Z,47.93
2019-02-16T05:33:30.764Z,46.23
2019-02-16T05:34:34.731Z,43.95
2019-02-16T05:35:38.672Z,46.02
2019-02-16T05:36:42.531Z,48.28
2019-02-16T05:37:46.540Z,48.55
2019-02-16T05:38:50.524Z,53.48
2019-02-16T05:39:54.497Z,50.23
2019-02-16T05:40:58.403Z,50.70
2019-02-16T05:42:02.293Z,55.23
2019-02-16T05:43:06.186Z,42.48
2019-02-16T05:44:10.083Z,38.73
2019-02-16T05:45:14.024Z,54.83
2019-02-16T05:46:17.909Z,43.30
2019-02-16T05:47:21.958Z,43.50
2019-02-16T05:48:25.883Z,47.58
2019-02-16T05:49:29.805Z,47.35
2019-02-16T05:50:33.720Z,45.78
2019-02-16T05:51:37.657Z,46.88
2019-02-16T05:52:41.642Z,47.03
2019-02-16T05:53:45.587Z,49.65
2019-02-16T05:54:49.525Z,38.88
2019-02-16T05:55:53.454Z,51.90
2019-02-16T05:56:57.415Z,43.48
2019-02-16T05:58:01.367Z,42.80
2019-02-16T05:59:05.274Z,48.35
2019-02-16T06:00:11.575Z,39.50
2019-02-16T06:01:15.520Z,35.13
2019-02-16T06:02:19.676Z,41.08
2019-02-16T06:03:23.526Z,36.60
2019-02-16T06:04:27.454Z,41.15
2019-02-16T06:05:31.378Z,37.20
2019-02-16T06:06:35.354Z,36.30
2019-02-16T06:07:39.264Z,38.28
2019-02-16T06:08:43.280Z,40.10
2019-02-16T06:09:47.207Z,39.38
2019-02-16T06:10:52.325Z,37.30
2019-02-16T06:11:56.245Z,42.95
2019-02-16T06:13:00.203Z,51.63
2019-02-16T06:14:04.121Z,44.27
2019-02-16T06:15:09.070Z,43.00
2019-02-16T06:16:12.912Z,47.88
2019-02-16T06:17:16.918Z,59.73
2019-02-16T06:18:21.058Z,51.05
2019-02-16T06:19:25.079Z,43.63
2019-02-16T06:20:29.050Z,56.92
2019-02-16T06:21:32.996Z,59.13
2019-02-16T06:22:36.908Z,50.58
2019-02-16T06:23:40.897Z,43.68
2019-02-16T06:24:44.803Z,42.60
2019-02-16T06:25:48.807Z,49.18
2019-02-16T06:26:52.716Z,46.55
2019-02-16T06:27:56.805Z,37.13
2019-02-16T06:29:00.708Z,42.40
2019-02-16T06:30:06.863Z,43.33
2019-02-16T06:31:10.950Z,45.52
2019-02-16T06:32:15.087Z,45.17
2019-02-16T06:33:19.079Z,44.03
2019-02-16T06:34:23.015Z,41.08
2019-02-16T06:35:28.737Z,46.48
2019-02-16T06:36:34.957Z,40.35
2019-02-16T06:37:38.947Z,44.53
2019-02-16T06:38:42.955Z,52.08
2019-02-16T06:39:46.859Z,41.85
2019-02-16T06:40:50.789Z,44.70
2019-02-16T06:41:54.834Z,42.80
2019-02-16T06:42:58.891Z,47.03
2019-02-16T06:44:02.873Z,52.90
2019-02-16T06:45:08.019Z,46.73
2019-02-16T06:46:11.992Z,47.83
2019-02-16T06:47:16.039Z,42.95
2019-02-16T06:48:20.053Z,58.83
2019-02-16T06:49:24.251Z,52.20
2019-02-16T06:50:36.556Z,45.20
2019-02-16T06:51:33.813Z,48.23
2019-02-16T06:52:37.694Z,47.30
2019-02-16T06:53:41.629Z,44.00
2019-02-16T06:54:45.647Z,46.90
2019-02-16T06:55:54.277Z,46.02
2019-02-16T06:57:02.803Z,42.88
2019-02-16T06:58:06.750Z,45.08
2019-02-16T06:59:10.677Z,38.15
2019-02-16T07:00:16.019Z,43.38
2019-02-16T07:01:20.011Z,42.08
2019-02-16T07:02:25.002Z,39.63
2019-02-16T07:03:28.987Z,36.93
2019-02-16T07:04:33.017Z,38.15
2019-02-16T07:05:36.989Z,38.75
2019-02-16T07:06:41.031Z,35.40
2019-02-16T07:07:44.910Z,39.35
2019-02-16T07:08:49.044Z,40.00
2019-02-16T07:09:52.921Z,38.50
2019-02-16T07:10:56.960Z,37.75
2019-02-16T07:12:00.963Z,30.15
2019-02-16T07:13:04.929Z,30.40
2019-02-16T07:14:08.931Z,35.90
2019-02-16T07:15:12.820Z,33.48
2019-02-16T07:16:24.394Z,39.18
2019-02-16T07:17:35.599Z,33.02
2019-02-16T07:18:41.284Z,32.70
2019-02-16T07:19:46.923Z,31.00
2019-02-16T07:20:50.923Z,46.92
2019-02-16T07:21:54.862Z,30.30
2019-02-16T07:22:58.756Z,38.78
2019-02-16T07:24:02.772Z,35.20
2019-02-16T07:25:07.635Z,36.10
2019-02-16T07:26:11.635Z,27.75
2019-02-16T07:27:15.675Z,30.45
2019-02-16T07:28:19.567Z,34.43
2019-02-16T07:29:23.510Z,34.60
2019-02-16T07:30:27.675Z,35.73
2019-02-16T07:31:31.568Z,39.05
2019-02-16T07:32:35.601Z,35.75
2019-02-16T07:33:39.917Z,34.35
2019-02-16T07:34:43.794Z,36.48
2019-02-16T07:35:47.829Z,36.83
2019-02-16T07:36:51.846Z,39.85
2019-02-16T07:37:55.857Z,34.98
2019-02-16T07:38:59.719Z,34.40
2019-02-16T07:40:04.508Z,33.67
2019-02-16T07:41:08.403Z,33.45
2019-02-16T07:42:12.395Z,38.65
2019-02-16T07:43:17.921Z,34.80
2019-02-16T07:44:29.340Z,33.30
2019-02-16T07:45:43.992Z,37.10
2019-02-16T07:46:58.154Z,32.60
2019-02-16T07:48:03.662Z,33.83
2019-02-16T07:49:09.261Z,29.82
2019-02-16T07:50:14.801Z,34.35
2019-02-16T07:51:20.405Z,28.85
2019-02-16T07:52:26.093Z,32.48
2019-02-16T07:53:35.680Z,30.15
2019-02-16T07:54:41.349Z,25.72
2019-02-16T07:55:47.034Z,32.50
2019-02-16T07:56:53.401Z,28.92
2019-02-16T07:58:04.753Z,31.25
2019-02-16T07:59:10.307Z,27.60
2019-02-16T08:00:19.087Z,28.80
2019-02-16T08:01:30.085Z,38.60
2019-02-16T08:02:35.701Z,34.23
2019-02-16T08:03:50.207Z,35.33
2019-02-16T08:05:07.577Z,33.18
2019-02-16T08:06:28.087Z,34.27
2019-02-16T08:07:33.707Z,25.60
2019-02-16T08:08:42.424Z,31.20
2019-02-16T08:09:53.959Z,30.37
2019-02-16T08:11:16.149Z,33.95
2019-02-16T08:12:39.612Z,30.62
2019-02-16T08:13:50.952Z,28.92
2019-02-16T08:14:56.591Z,32.03
2019-02-16T08:16:05.102Z,34.75
2019-02-16T08:17:10.712Z,36.80
2019-02-16T08:18:16.421Z,38.28
2019-02-16T08:19:24.809Z,32.03
2019-02-16T08:20:30.509Z,42.38
2019-02-16T08:21:52.325Z,32.35
2019-02-16T08:23:03.736Z,36.40
2019-02-16T08:24:12.424Z,32.78
2019-02-16T08:25:33.959Z,32.17
2019-02-16T08:26:42.129Z,36.45
2019-02-16T08:27:47.665Z,32.15
2019-02-16T08:28:53.212Z,41.73
2019-02-16T08:30:07.819Z,33.15
2019-02-16T08:31:22.366Z,30.15
2019-02-16T08:32:33.832Z,30.77
2019-02-16T08:33:42.146Z,31.93
2019-02-16T08:34:53.679Z,30.15
2019-02-16T08:35:59.336Z,36.40
2019-02-16T08:37:04.944Z,31.93
2019-02-16T08:38:10.599Z,32.70
2019-02-16T08:39:22.079Z,32.70
2019-02-16T08:40:27.712Z,32.75
2019-02-16T08:41:33.362Z,33.73
2019-02-16T08:42:44.446Z,36.85
2019-02-16T08:43:52.543Z,33.85
2019-02-16T08:45:07.037Z,36.33
2019-02-16T08:46:12.650Z,36.53
2019-02-16T08:47:18.494Z,38.05
2019-02-16T08:48:39.082Z,35.60
2019-02-16T08:49:47.519Z,37.17
2019-02-16T08:50:54.725Z,39.45
2019-02-16T08:52:09.105Z,47.73
2019-02-16T08:53:15.077Z,39.53
2019-02-16T08:54:29.936Z,36.73
2019-02-16T08:55:35.641Z,35.70
2019-02-16T08:56:41.325Z,44.20
2019-02-16T08:58:03.715Z,42.53
2019-02-16T08:59:15.225Z,40.25
2019-02-16T09:00:29.945Z,38.70
2019-02-16T09:01:50.593Z,40.78
2019-02-16T09:02:57.860Z,48.40
2019-02-16T09:04:04.710Z,41.18
2019-02-16T09:05:26.884Z,43.05
2019-02-16T09:06:35.547Z,43.42
2019-02-16T09:07:44.593Z,40.17
2019-02-16T09:08:50.621Z,39.18
2019-02-16T09:10:02.081Z,39.92
2019-02-16T09:11:13.468Z,40.23
2019-02-16T09:12:19.181Z,40.98
2019-02-16T09:13:28.517Z,41.53
2019-02-16T09:14:37.104Z,39.48
2019-02-16T09:16:01.851Z,38.33
2019-02-16T09:17:25.769Z,46.00
2019-02-16T09:18:48.708Z,44.13
2019-02-16T09:19:56.009Z,50.52
2019-02-16T09:21:14.155Z,50.30
2019-02-16T09:22:17.893Z,48.73
2019-02-16T09:23:23.525Z,45.00
2019-02-16T09:24:29.146Z,42.53
2019-02-16T09:25:55.516Z,39.85
2019-02-16T09:27:18.480Z,41.60
2019-02-16T09:28:42.752Z,44.20
2019-02-16T09:29:50.952Z,41.40
2019-02-16T09:30:57.978Z,49.35
2019-02-16T09:32:13.216Z,40.75
2019-02-16T09:33:30.766Z,48.35
2019-02-16T09:34:42.048Z,42.08
2019-02-16T09:35:47.589Z,39.42
2019-02-16T09:37:09.666Z,38.00
2019-02-16T09:38:31.288Z,45.88
2019-02-16T09:39:59.722Z,41.75
2019-02-16T09:41:12.920Z,40.28
2019-02-16T09:42:21.342Z,41.20
2019-02-16T09:43:33.007Z,46.08
2019-02-16T09:44:57.251Z,42.00
2019-02-16T09:46:03.456Z,38.17
2019-02-16T09:47:10.306Z,35.70
2019-02-16T09:48:31.856Z,35.48
2019-02-16T09:49:36.927Z,34.53
2019-02-16T09:50:48.581Z,36.25
2019-02-16T09:51:56.753Z,39.90
2019-02-16T09:53:11.078Z,36.30
2019-02-16T09:54:32.653Z,35.90
2019-02-16T09:55:47.048Z,39.75
2019-02-16T09:57:10.697Z,37.05
2019-02-16T09:58:22.100Z,33.85
2019-02-16T09:59:45.540Z,36.95
2019-02-16T10:00:57.405Z,36.23
2019-02-16T10:02:10.794Z,38.88
2019-02-16T10:03:32.471Z,35.70
2019-02-16T10:04:38.060Z,32.90
2019-02-16T10:05:52.597Z,35.58
2019-02-16T10:07:13.255Z,35.98
2019-02-16T10:08:21.878Z,38.08
2019-02-16T10:09:30.165Z,39.88
2019-02-16T10:10:41.777Z,41.98
2019-02-16T10:11:50.074Z,41.95
2019-02-16T10:13:00.555Z,39.33
2019-02-16T10:14:05.829Z,34.30
2019-02-16T10:15:28.188Z,42.78
2019-02-16T10:16:49.112Z,34.55
2019-02-16T10:17:54.677Z,33.50
2019-02-16T10:19:09.412Z,38.55
2019-02-16T10:20:20.846Z,38.20
2019-02-16T10:21:38.510Z,39.60
2019-02-16T10:22:54.481Z,35.52
2019-02-16T10:24:17.954Z,41.28
2019-02-16T10:25:35.969Z,34.80
2019-02-16T10:26:44.079Z,40.85
2019-02-16T10:27:55.643Z,36.03
2019-02-16T10:29:10.104Z,36.98
2019-02-16T10:30:15.800Z,34.13
2019-02-16T10:31:21.334Z,41.28
2019-02-16T10:32:41.677Z,38.58
2019-02-16T10:33:47.257Z,39.67
2019-02-16T10:34:52.888Z,39.00
2019-02-16T10:36:04.416Z,44.65
2019-02-16T10:37:10.033Z,39.10
2019-02-16T10:38:27.760Z,39.85
2019-02-16T10:39:33.302Z,36.85
2019-02-16T10:40:38.945Z,35.95
2019-02-16T10:41:47.155Z,38.90
2019-02-16T10:42:55.358Z,39.33
2019-02-16T10:44:03.606Z,39.80
2019-02-16T10:45:09.169Z,40.65
2019-02-16T10:46:14.708Z,37.30
2019-02-16T10:47:29.527Z,38.65
2019-02-16T10:48:47.454Z,45.83
2019-02-16T10:50:08.254Z,47.15
2019-02-16T10:51:29.156Z,35.88
2019-02-16T10:52:40.657Z,37.33
2019-02-16T10:54:05.958Z,42.78
2019-02-16T10:55:14.052Z,37.65
2019-02-16T10:56:19.660Z,42.30
2019-02-16T10:57:28.197Z,38.42
2019-02-16T10:58:33.779Z,38.45
2019-02-16T10:59:45.952Z,41.60
2019-02-16T11:01:03.671Z,40.35
2019-02-16T11:02:11.661Z,39.60
2019-02-16T11:03:31.966Z,38.42
2019-02-16T11:04:46.484Z,41.37
2019-02-16T11:05:55.406Z,38.10
2019-02-16T11:07:06.624Z,38.80
2019-02-16T11:08:17.980Z,45.78
2019-02-16T11:09:29.488Z,47.35
2019-02-16T11:10:37.786Z,53.98
2019-02-16T11:11:46.089Z,40.80
2019-02-16T11:12:57.518Z,43.10
2019-02-16T11:14:03.088Z,42.13
2019-02-16T11:15:14.562Z,39.53
2019-02-16T11:16:23.204Z,43.73
2019-02-16T11:17:34.771Z,44.60
2019-02-16T11:18:55.111Z,41.02
2019-02-16T11:20:03.483Z,42.03
2019-02-16T11:21:09.114Z,48.05
2019-02-16T11:22:26.913Z,43.65
2019-02-16T11:23:32.388Z,41.60
2019-02-16T11:24:43.750Z,47.93
2019-02-16T11:25:52.484Z,43.23
2019-02-16T11:27:04.192Z,45.55
2019-02-16T11:28:24.800Z,42.58
2019-02-16T11:29:46.845Z,47.13
2019-02-16T11:31:04.460Z,39.05
2019-02-16T11:32:15.893Z,41.37
2019-02-16T11:33:27.088Z,48.02
2019-02-16T11:34:47.673Z,43.08
2019-02-16T11:36:02.336Z,41.58
2019-02-16T11:37:10.494Z,40.15
2019-02-16T11:38:21.923Z,40.85
2019-02-16T11:39:42.801Z,43.90
2019-02-16T11:40:48.358Z,45.80
2019-02-16T11:41:59.832Z,46.88
2019-02-16T11:43:05.519Z,44.88
2019-02-16T11:44:11.075Z,46.30
2019-02-16T11:45:16.647Z,48.10
2019-02-16T11:46:22.362Z,48.23
2019-02-16T11:47:29.544Z,48.35
2019-02-16T11:48:44.344Z,42.75
2019-02-16T11:49:50.989Z,45.83
2019-02-16T11:51:05.998Z,48.08
2019-02-16T11:52:14.333Z,43.90
2019-02-16T11:53:23.027Z,47.30
2019-02-16T11:54:31.316Z,44.38
2019-02-16T11:55:53.245Z,48.17
2019-02-16T11:57:17.164Z,41.53
2019-02-16T11:58:37.909Z,44.53
2019-02-16T11:59:46.317Z,39.35
2019-02-16T12:00:54.824Z,40.45
2019-02-16T12:02:12.208Z,40.98
2019-02-16T12:03:19.194Z,40.45
2019-02-16T12:04:30.913Z,43.42
2019-02-16T12:05:48.326Z,40.92
2019-02-16T12:06:57.017Z,44.65
2019-02-16T12:08:02.568Z,42.05
2019-02-16T12:09:24.205Z,39.20
2019-02-16T12:10:44.897Z,40.58
2019-02-16T12:11:50.491Z,40.60
2019-02-16T12:13:11.051Z,42.00
2019-02-16T12:14:25.649Z,42.40
2019-02-16T12:15:46.668Z,38.28
2019-02-16T12:16:52.373Z,38.98
2019-02-16T12:17:58.011Z,36.17
2019-02-16T12:19:12.599Z,37.80
2019-02-16T12:20:33.388Z,41.08
2019-02-16T12:21:49.208Z,41.58
2019-02-16T12:23:03.769Z,36.88
2019-02-16T12:24:09.330Z,36.58
2019-02-16T12:25:14.879Z,40.45
2019-02-16T12:26:22.460Z,38.50
2019-02-16T12:27:47.343Z,40.92
2019-02-16T12:28:52.878Z,36.73
2019-02-16T12:29:58.531Z,42.78
2019-02-16T12:31:04.098Z,45.17
2019-02-16T12:32:15.632Z,37.58
2019-02-16T12:33:33.292Z,43.25
2019-02-16T12:34:41.658Z,40.30
2019-02-16T12:35:50.436Z,40.20
2019-02-16T12:37:01.576Z,41.40
2019-02-16T12:38:10.143Z,47.93
2019-02-16T12:39:18.416Z,40.23
2019-02-16T12:40:30.337Z,37.75
2019-02-16T12:41:35.910Z,43.15
2019-02-16T12:42:50.291Z,38.08
2019-02-16T12:44:12.100Z,46.30
2019-02-16T12:45:23.512Z,40.70
2019-02-16T12:46:31.866Z,40.40
2019-02-16T12:47:37.537Z,39.18
2019-02-16T12:48:43.143Z,40.28
2019-02-16T12:50:05.144Z,46.42
2019-02-16T12:51:28.958Z,42.23
2019-02-16T12:52:43.490Z,44.03
2019-02-16T12:53:49.248Z,44.27
2019-02-16T12:54:54.834Z,40.60
2019-02-16T12:56:00.408Z,43.98
2019-02-16T12:57:05.973Z,42.33
2019-02-16T12:58:23.227Z,39.35
2019-02-16T12:59:34.482Z,44.45
2019-02-16T13:00:56.197Z,44.45
2019-02-16T13:02:20.087Z,42.95
2019-02-16T13:03:28.515Z,41.42
2019-02-16T13:04:34.134Z,41.92
2019-02-16T13:05:54.397Z,43.50
2019-02-16T13:07:10.380Z,40.60
2019-02-16T13:08:15.988Z,40.23
2019-02-16T13:09:33.679Z,40.95
2019-02-16T13:10:39.327Z,41.63
2019-02-16T13:12:03.026Z,42.60
2019-02-16T13:13:11.469Z,39.38
2019-02-16T13:14:26.118Z,40.65
2019-02-16T13:15:49.542Z,41.83
2019-02-16T13:17:03.975Z,45.67
2019-02-16T13:18:18.584Z,46.35
2019-02-16T13:19:40.205Z,40.33
2019-02-16T13:21:03.672Z,44.23
2019-02-16T13:22:09.275Z,41.85
2019-02-16T13:23:20.667Z,48.60
2019-02-16T13:24:32.350Z,45.23
2019-02-16T13:25:37.865Z,39.80
2019-02-16T13:26:49.591Z,45.00
2019-02-16T13:27:59.552Z,41.33
2019-02-16T13:29:12.321Z,41.58
2019-02-16T13:30:20.546Z,42.83
2019-02-16T13:31:34.964Z,47.75
2019-02-16T13:32:56.627Z,43.92
2019-02-16T13:34:18.336Z,44.55
2019-02-16T13:35:24.028Z,46.58
2019-02-16T13:36:29.588Z,45.43
2019-02-16T13:37:38.048Z,37.80
2019-02-16T13:38:59.581Z,41.50
2019-02-16T13:40:17.616Z,37.48
2019-02-16T13:41:23.257Z,39.00
2019-02-16T13:42:31.588Z,46.75
2019-02-16T13:43:52.388Z,43.80
2019-02-16T13:44:57.985Z,47.13
2019-02-16T13:46:21.799Z,41.13
2019-02-16T13:47:43.876Z,47.53
2019-02-16T13:48:55.350Z,39.08
2019-02-16T13:50:06.832Z,49.50
2019-02-16T13:51:21.460Z,46.80
2019-02-16T13:52:32.754Z,47.45
2019-02-16T13:53:53.537Z,43.05
2019-02-16T13:54:59.095Z,42.48
2019-02-16T13:56:21.009Z,41.58
2019-02-16T13:57:44.947Z,46.90
2019-02-16T13:59:05.588Z,47.53
2019-02-16T14:00:20.282Z,40.78
2019-02-16T14:01:29.185Z,49.60
2019-02-16T14:02:46.941Z,48.28
2019-02-16T14:03:52.596Z,43.98
2019-02-16T14:04:58.303Z,48.33
2019-02-16T14:06:09.534Z,43.98
2019-02-16T14:07:27.737Z,43.23
2019-02-16T14:08:51.056Z,44.25
2019-02-16T14:09:56.650Z,46.53
2019-02-16T14:11:05.370Z,44.67
2019-02-16T14:12:13.410Z,45.45
2019-02-16T14:13:18.975Z,46.85
2019-02-16T14:14:40.692Z,42.33
2019-02-16T14:15:46.274Z,37.63
2019-02-16T14:16:57.775Z,45.73
2019-02-16T14:18:01.776Z,41.10
2019-02-16T14:19:07.340Z,38.83
2019-02-16T14:20:11.439Z,39.30
2019-02-16T14:21:15.495Z,40.83
2019-02-16T14:22:20.552Z,42.40
2019-02-16T14:23:24.734Z,45.98
2019-02-16T14:24:43.527Z,40.80
2019-02-16T14:25:47.688Z,36.77
2019-02-16T14:26:51.800Z,40.90
2019-02-16T14:27:55.889Z,40.67
2019-02-16T14:29:00.383Z,39.63
2019-02-16T14:30:06.575Z,43.92
2019-02-16T14:31:10.849Z,51.10
2019-02-16T14:32:14.918Z,49.77
2019-02-16T14:33:18.824Z,40.80
2019-02-16T14:34:22.851Z,43.08